createdAt,value
2022-08-08T00:01:52.521Z,14.55
2022-08-08T00:04:49.471Z,14.67
2022-08-08T00:07:43.587Z,14.53
2022-08-08T00:10:28.498Z,14.34
2022-08-08T00:13:10.030Z,14.31
2022-08-08T00:15:58.368Z,14.08
2022-08-08T00:19:08.589Z,13.85
2022-08-08T00:21:45.151Z,13.51
2022-08-08T00:24:33.570Z,13.42
2022-08-08T00:27:06.522Z,13.45
2022-08-08T00:29:51.826Z,13.49
2022-08-08T00:32:51.786Z,13.45
2022-08-08T00:35:56.959Z,13.52
2022-08-08T00:38:56.040Z,13.64
2022-08-08T00:42:07.870Z,13.39
2022-08-08T00:45:21.097Z,13.58
2022-08-08T00:48:33.907Z,13.49
2022-08-08T00:51:59.184Z,13.38
2022-08-08T00:54:45.793Z,13.21
2022-08-08T00:58:21.227Z,13.02
2022-08-08T01:01:29.411Z,12.94
2022-08-08T01:04:34.860Z,12.81
2022-08-08T01:07:55.676Z,12.70
2022-08-08T01:11:09.745Z,12.62
2022-08-08T01:14:54.855Z,12.48
2022-08-08T01:17:51.513Z,12.52
2022-08-08T01:20:53.511Z,12.59
2022-08-08T01:24:20.609Z,12.57
2022-08-08T01:27:44.875Z,12.48
2022-08-08T01:30:55.818Z,12.35
2022-08-08T01:34:00.609Z,12.41
2022-08-08T01:37:06.799Z,12.29
2022-08-08T01:39:56.876Z,12.10
2022-08-08T01:42:50.813Z,11.99
2022-08-08T01:46:03.280Z,12.22
2022-08-08T01:49:22.876Z,12.02
2022-08-08T01:52:57.263Z,12.12
2022-08-08T01:56:28.648Z,12.35
2022-08-08T01:58:47.222Z,12.24
2022-08-08T02:02:00.307Z,12.18
2022-08-08T02:04:46.066Z,12.33
2022-08-08T02:07:41.762Z,13.00
2022-08-08T02:10:59.168Z,13.15
2022-08-08T02:13:55.584Z,12.78
2022-08-08T02:17:03.758Z,12.60
2022-08-08T02:20:09.437Z,12.32
2022-08-08T02:23:18.390Z,12.27
2022-08-08T02:26:00.743Z,11.77
2022-08-08T02:29:18.591Z,11.74
2022-08-08T02:32:09.801Z,12.04
2022-08-08T02:36:05.216Z,12.10
2022-08-08T02:39:40.555Z,12.16
2022-08-08T02:43:00.709Z,12.17
2022-08-08T02:46:00.731Z,12.15
2022-08-08T02:49:27.355Z,12.07
2022-08-08T02:52:34.797Z,12.11
2022-08-08T02:56:03.274Z,11.91
2022-08-08T02:59:57.270Z,11.93
2022-08-08T03:02:52.493Z,11.76
2022-08-08T03:05:59.854Z,11.35
2022-08-08T03:09:28.743Z,11.31
2022-08-08T03:13:01.558Z,11.81
2022-08-08T03:15:56.773Z,11.65
2022-08-08T03:18:43.862Z,11.15
2022-08-08T03:21:14.518Z,11.09
2022-08-08T03:23:57.607Z,11.01
2022-08-08T03:26:42.011Z,10.97
2022-08-08T03:29:27.012Z,10.85
2022-08-08T03:32:29.080Z,11.11
2022-08-08T03:34:57.914Z,11.33
2022-08-08T03:38:53.156Z,11.87
2022-08-08T03:40:30.612Z,11.85
2022-08-08T03:43:16.725Z,11.86
2022-08-08T03:46:06.326Z,11.52
2022-08-08T03:49:56.324Z,11.47
2022-08-08T03:51:51.085Z,11.70
2022-08-08T03:54:41.699Z,11.84
2022-08-08T03:58:09.493Z,11.81
2022-08-08T04:00:11.230Z,11.62
2022-08-08T04:02:51.882Z,11.40
2022-08-08T04:05:22.788Z,10.99
2022-08-08T04:08:00.762Z,10.88
2022-08-08T04:10:32.884Z,10.76
2022-08-08T04:13:08.216Z,10.70
2022-08-08T04:16:03.443Z,10.63
2022-08-08T04:18:41.895Z,10.59
2022-08-08T04:21:13.071Z,10.65
2022-08-08T04:24:05.335Z,10.66
2022-08-08T04:26:35.471Z,11.01
2022-08-08T04:29:16.406Z,11.21
2022-08-08T04:31:59.438Z,11.55
2022-08-08T04:34:32.257Z,11.73
2022-08-08T04:37:11.931Z,11.61
2022-08-08T04:40:03.506Z,11.62
2022-08-08T04:42:31.565Z,11.25
2022-08-08T04:45:05.299Z,11.24
2022-08-08T04:47:36.517Z,11.25
2022-08-08T04:50:14.312Z,11.61
2022-08-08T04:53:00.902Z,11.74
2022-08-08T04:55:47.062Z,11.94
2022-08-08T04:58:17.497Z,12.03
2022-08-08T05:00:48.352Z,12.03
2022-08-08T05:03:18.942Z,12.33
2022-08-08T05:06:13.309Z,12.73
2022-08-08T05:08:43.171Z,13.01
2022-08-08T05:11:24.635Z,13.27
2022-08-08T05:14:01.241Z,13.76
2022-08-08T05:16:51.871Z,14.25
2022-08-08T05:20:11.162Z,15.21
2022-08-08T05:22:10.959Z,16.65
2022-08-08T05:24:48.819Z,17.74
2022-08-08T05:27:18.933Z,18.87
2022-08-08T05:29:51.890Z,19.22
2022-08-08T05:32:24.391Z,19.25
2022-08-08T05:35:04.781Z,19.94
2022-08-08T05:37:51.976Z,20.36
2022-08-08T05:40:28.323Z,20.33
2022-08-08T05:43:38.432Z,20.66
2022-08-08T05:46:01.910Z,20.51
2022-08-08T05:48:34.674Z,20.79
2022-08-08T05:51:14.930Z,21.58
2022-08-08T05:54:24.920Z,21.35
2022-08-08T05:56:41.891Z,21.42
2022-08-08T05:59:59.868Z,21.78
2022-08-08T06:02:40.715Z,22.31
2022-08-08T06:05:34.550Z,22.84
2022-08-08T06:08:02.353Z,23.92
2022-08-08T06:10:34.581Z,24.08
2022-08-08T06:13:02.873Z,25.25
2022-08-08T06:15:50.879Z,25.04
2022-08-08T06:18:25.642Z,25.89
2022-08-08T06:21:03.447Z,26.67
2022-08-08T06:23:52.865Z,26.63
2022-08-08T06:26:44.695Z,27.33
2022-08-08T06:29:59.360Z,26.17
2022-08-08T06:32:17.142Z,25.89
2022-08-08T06:35:12.234Z,25.56
2022-08-08T06:37:55.787Z,25.61
2022-08-08T06:40:29.920Z,25.79
2022-08-08T06:43:10.028Z,26.11
2022-08-08T06:45:48.315Z,26.56
2022-08-08T06:48:17.224Z,26.61
2022-08-08T06:50:45.936Z,26.21
2022-08-08T06:53:20.139Z,26.62
2022-08-08T06:56:02.625Z,26.76
2022-08-08T06:58:34.056Z,27.52
2022-08-08T07:01:11.482Z,27.25
2022-08-08T07:04:37.357Z,27.32
2022-08-08T07:07:00.985Z,27.29
2022-08-08T07:09:59.521Z,27.64
2022-08-08T07:12:41.094Z,28.69
2022-08-08T07:15:32.546Z,28.48
2022-08-08T07:18:35.467Z,28.86
2022-08-08T07:20:58.580Z,29.25
2022-08-08T07:23:57.571Z,28.95
2022-08-08T07:26:35.565Z,28.87
2022-08-08T07:29:08.347Z,28.91
2022-08-08T07:31:41.397Z,28.99
2022-08-08T07:34:26.689Z,31.18
2022-08-08T07:37:11.896Z,30.71
2022-08-08T07:39:45.653Z,30.86
2022-08-08T07:42:25.946Z,29.74
2022-08-08T07:45:02.905Z,29.62
2022-08-08T07:47:39.287Z,30.04
2022-08-08T07:50:10.748Z,29.78
2022-08-08T07:52:47.262Z,30.48
2022-08-08T07:55:28.638Z,30.99
2022-08-08T07:58:08.379Z,31.66
2022-08-08T08:01:08.261Z,31.19
2022-08-08T08:04:13.789Z,30.85
2022-08-08T08:06:43.474Z,31.84
2022-08-08T08:09:26.560Z,32.92
2022-08-08T08:11:56.714Z,33.43
2022-08-08T08:14:55.654Z,33.30
2022-08-08T08:17:25.757Z,32.57
2022-08-08T08:20:05.235Z,34.93
2022-08-08T08:22:33.795Z,35.80
2022-08-08T08:25:07.440Z,34.08
2022-08-08T08:27:35.823Z,33.80
2022-08-08T08:30:03.924Z,33.67
2022-08-08T08:32:36.364Z,34.14
2022-08-08T08:35:13.226Z,35.03
2022-08-08T08:38:13.329Z,35.32
2022-08-08T08:40:33.074Z,33.83
2022-08-08T08:43:03.213Z,32.28
2022-08-08T08:45:32.189Z,32.91
2022-08-08T08:48:03.165Z,33.21
2022-08-08T08:50:41.057Z,31.16
2022-08-08T08:53:27.290Z,31.53
2022-08-08T08:56:13.844Z,33.25
2022-08-08T08:58:46.967Z,34.79
2022-08-08T09:01:23.871Z,34.42
2022-08-08T09:03:56.005Z,34.13
2022-08-08T09:06:33.553Z,34.73
2022-08-08T09:09:26.381Z,33.92
2022-08-08T09:12:07.614Z,33.89
2022-08-08T09:14:42.467Z,31.95
2022-08-08T09:17:18.249Z,32.19
2022-08-08T09:21:56.668Z,33.75
2022-08-08T09:22:36.665Z,34.17
2022-08-08T09:25:09.786Z,33.54
2022-08-08T09:27:55.725Z,33.21
2022-08-08T09:30:27.974Z,31.54
2022-08-08T09:33:12.678Z,31.10
2022-08-08T09:35:49.739Z,30.31
2022-08-08T09:38:33.823Z,30.65
2022-08-08T09:41:06.507Z,31.66
2022-08-08T09:44:06.782Z,30.66
2022-08-08T09:46:34.751Z,32.03
2022-08-08T09:49:17.964Z,31.91
2022-08-08T09:52:01.638Z,32.98
2022-08-08T09:54:44.847Z,33.43
2022-08-08T09:57:18.920Z,32.46
2022-08-08T10:00:14.644Z,33.36
2022-08-08T10:02:45.293Z,33.43
2022-08-08T10:05:22.771Z,34.30
2022-08-08T10:07:59.777Z,34.94
2022-08-08T10:10:33.220Z,34.35
2022-08-08T10:13:30.013Z,32.55
2022-08-08T10:16:03.427Z,32.47
2022-08-08T10:18:34.121Z,32.20
2022-08-08T10:21:23.203Z,31.91
2022-08-08T10:23:58.080Z,33.47
2022-08-08T10:26:57.190Z,32.11
2022-08-08T10:29:59.067Z,32.56
2022-08-08T10:32:32.742Z,31.41
2022-08-08T10:35:04.993Z,31.41
2022-08-08T10:37:39.934Z,32.09
2022-08-08T10:40:16.282Z,31.84
2022-08-08T10:42:45.479Z,33.19
2022-08-08T10:45:16.148Z,34.47
2022-08-08T10:47:55.292Z,33.19
2022-08-08T10:50:31.452Z,33.22
2022-08-08T10:53:07.836Z,33.37
2022-08-08T10:55:46.536Z,33.37
2022-08-08T10:58:15.547Z,33.50
2022-08-08T11:00:53.396Z,32.66
2022-08-08T11:04:00.550Z,32.82
2022-08-08T11:06:34.133Z,32.50
2022-08-08T11:09:15.058Z,33.93
2022-08-08T11:12:05.864Z,34.09
2022-08-08T11:14:35.014Z,33.85
2022-08-08T11:17:03.885Z,33.35
2022-08-08T11:19:33.193Z,34.18
2022-08-08T11:22:01.217Z,35.01
2022-08-08T11:24:33.457Z,35.24
2022-08-08T11:27:10.701Z,34.32
2022-08-08T11:30:04.332Z,35.54
2022-08-08T11:32:41.921Z,36.26
2022-08-08T11:35:27.756Z,35.87
2022-08-08T11:38:36.387Z,32.56
2022-08-08T11:40:52.478Z,31.35
2022-08-08T11:43:24.454Z,31.43
2022-08-08T11:46:09.738Z,32.67
2022-08-08T11:48:40.771Z,33.14
2022-08-08T11:51:38.750Z,35.10
2022-08-08T11:54:01.193Z,35.45
2022-08-08T11:56:42.172Z,35.60
2022-08-08T11:59:11.764Z,34.40
2022-08-08T12:01:39.310Z,35.87
2022-08-08T12:04:09.357Z,33.79
2022-08-08T12:06:39.363Z,33.28
2022-08-08T12:09:09.489Z,33.30
2022-08-08T12:11:45.847Z,32.47
2022-08-08T12:14:23.321Z,33.57
2022-08-08T12:16:54.738Z,33.76
2022-08-08T12:19:37.950Z,34.05
2022-08-08T12:22:13.207Z,35.28
2022-08-08T12:24:53.727Z,35.75
2022-08-08T12:27:21.548Z,35.34
2022-08-08T12:29:59.903Z,35.26
2022-08-08T12:32:31.361Z,35.98
2022-08-08T12:35:04.152Z,36.51
2022-08-08T12:37:47.866Z,35.94
2022-08-08T12:40:22.389Z,35.34
2022-08-08T12:42:52.432Z,36.08
2022-08-08T12:45:59.590Z,34.58
2022-08-08T12:48:36.606Z,33.65
2022-08-08T12:51:11.089Z,34.15
2022-08-08T12:53:57.480Z,35.05
2022-08-08T12:56:37.616Z,37.04
2022-08-08T13:00:03.621Z,37.23
2022-08-08T13:02:42.120Z,36.28
2022-08-08T13:05:27.056Z,34.63
2022-08-08T13:08:21.970Z,33.58
2022-08-08T13:10:58.248Z,34.24
2022-08-08T13:13:34.735Z,32.12
2022-08-08T13:16:19.792Z,32.25
2022-08-08T13:18:57.281Z,31.30
2022-08-08T13:21:48.539Z,31.35
2022-08-08T13:24:18.782Z,30.74
2022-08-08T13:27:10.781Z,30.63
2022-08-08T13:29:48.979Z,30.86
2022-08-08T13:32:20.853Z,30.55
2022-08-08T13:34:53.086Z,30.80
2022-08-08T13:37:28.310Z,30.28
2022-08-08T13:40:11.237Z,29.83
2022-08-08T13:42:45.634Z,29.65
2022-08-08T13:45:20.325Z,29.81
2022-08-08T13:48:01.850Z,29.88
2022-08-08T13:50:50.518Z,29.51
2022-08-08T13:53:31.413Z,29.31
2022-08-08T13:56:05.209Z,29.57
2022-08-08T13:58:33.195Z,29.58
2022-08-08T14:01:13.706Z,29.65
2022-08-08T14:03:55.483Z,29.41
2022-08-08T14:06:33.892Z,29.09
2022-08-08T14:09:24.550Z,29.11
2022-08-08T14:11:49.818Z,28.87
2022-08-08T14:14:20.872Z,29.07
2022-08-08T14:16:53.830Z,29.36
2022-08-08T14:19:57.544Z,29.34
2022-08-08T14:22:27.474Z,29.15
2022-08-08T14:25:02.383Z,29.08
2022-08-08T14:27:40.408Z,28.99
2022-08-08T14:30:18.462Z,29.05
2022-08-08T14:32:52.976Z,29.05
2022-08-08T14:35:24.611Z,28.92
2022-08-08T14:38:09.458Z,29.09
2022-08-08T14:40:41.675Z,29.26
2022-08-08T14:43:22.169Z,29.37
2022-08-08T14:46:09.453Z,29.50
2022-08-08T14:48:52.568Z,29.11
2022-08-08T14:51:52.574Z,29.26
2022-08-08T14:54:28.786Z,29.40
2022-08-08T14:56:58.100Z,29.38
2022-08-08T14:59:44.665Z,28.89
2022-08-08T15:02:15.410Z,28.84
2022-08-08T15:04:43.213Z,28.79
2022-08-08T15:07:24.219Z,28.85
2022-08-08T15:10:00.441Z,28.75
2022-08-08T15:12:28.744Z,28.88
2022-08-08T15:14:56.339Z,28.64
2022-08-08T15:17:24.068Z,28.89
2022-08-08T15:19:52.101Z,28.96
2022-08-08T15:22:23.735Z,28.93
2022-08-08T15:24:51.897Z,29.01
2022-08-08T15:27:58.300Z,28.88
2022-08-08T15:30:08.218Z,28.72
2022-08-08T15:32:40.600Z,28.72
2022-08-08T15:35:11.234Z,28.77
2022-08-08T15:37:39.117Z,28.71
2022-08-08T15:40:11.366Z,28.77
2022-08-08T15:42:47.592Z,28.68
2022-08-08T15:45:17.046Z,28.70
2022-08-08T15:48:04.161Z,28.82
2022-08-08T15:50:58.734Z,28.89
2022-08-08T15:53:28.179Z,28.78
2022-08-08T15:56:12.661Z,28.70
2022-08-08T15:58:48.275Z,28.59
2022-08-08T16:01:16.724Z,28.61
2022-08-08T16:03:47.983Z,28.43
2022-08-08T16:06:28.563Z,28.26
2022-08-08T16:13:02.517Z,28.43
2022-08-08T16:13:05.030Z,28.41
2022-08-08T16:14:34.906Z,28.44
2022-08-08T16:17:05.648Z,28.41
2022-08-08T16:19:56.914Z,28.39
2022-08-08T16:22:29.922Z,28.36
2022-08-08T16:24:58.891Z,28.32
2022-08-08T16:27:35.222Z,28.31
2022-08-08T16:30:10.540Z,28.24
2022-08-08T16:32:41.839Z,28.18
2022-08-08T16:35:09.924Z,28.09
2022-08-08T16:37:40.488Z,28.10
2022-08-08T16:40:14.211Z,28.10
2022-08-08T16:42:51.856Z,28.07
2022-08-08T16:46:36.475Z,28.06
2022-08-08T16:48:09.379Z,28.10
2022-08-08T16:50:40.649Z,27.98
2022-08-08T16:55:20.748Z,27.94
2022-08-08T16:55:57.702Z,27.93
2022-08-08T16:58:27.022Z,27.91
2022-08-08T17:01:00.354Z,27.89
2022-08-08T17:03:58.670Z,27.80
2022-08-08T17:06:36.190Z,27.73
2022-08-08T17:09:03.432Z,27.65
2022-08-08T17:11:39.282Z,27.60
2022-08-08T17:14:18.903Z,27.54
2022-08-08T17:16:57.755Z,27.45
2022-08-08T17:19:27.435Z,27.47
2022-08-08T17:21:56.890Z,27.38
2022-08-08T17:24:27.669Z,27.33
2022-08-08T17:26:58.086Z,27.27
2022-08-08T17:29:27.085Z,27.24
2022-08-08T17:31:54.983Z,27.16
2022-08-08T17:34:49.709Z,27.06
2022-08-08T17:37:13.720Z,27.09
2022-08-08T17:40:03.019Z,27.02
2022-08-08T17:42:29.139Z,26.99
2022-08-08T17:44:58.335Z,26.86
2022-08-08T17:47:28.092Z,26.78
2022-08-08T17:50:06.240Z,26.73
2022-08-08T17:52:35.434Z,26.72
2022-08-08T17:56:03.431Z,26.66
2022-08-08T17:57:54.204Z,26.59
2022-08-08T18:00:30.473Z,26.52
2022-08-08T18:03:08.406Z,26.38
2022-08-08T18:05:49.732Z,26.38
2022-08-08T18:08:25.227Z,26.29
2022-08-08T18:11:11.460Z,26.21
2022-08-08T18:13:41.876Z,26.10
2022-08-08T18:16:11.060Z,25.99
2022-08-08T18:18:42.701Z,25.81
2022-08-08T18:21:34.840Z,25.71
2022-08-08T18:24:01.050Z,25.51
2022-08-08T18:26:29.681Z,25.38
2022-08-08T18:28:57.610Z,25.28
2022-08-08T18:31:27.831Z,25.23
2022-08-08T18:34:12.305Z,25.11
2022-08-08T18:36:44.558Z,24.97
2022-08-08T18:39:16.413Z,24.89
2022-08-08T18:41:59.744Z,24.75
2022-08-08T18:44:32.946Z,24.67
2022-08-08T18:47:02.466Z,24.54
2022-08-08T18:49:32.367Z,24.40
2022-08-08T18:52:18.591Z,24.29
2022-08-08T18:54:59.802Z,24.18
2022-08-08T18:57:31.533Z,24.06
2022-08-08T19:00:06.707Z,23.96
2022-08-08T19:02:38.254Z,23.83
2022-08-08T19:05:16.735Z,23.68
2022-08-08T19:07:52.176Z,23.60
2022-08-08T19:10:20.551Z,23.45
2022-08-08T19:12:53.117Z,23.29
2022-08-08T19:15:23.858Z,23.17
2022-08-08T19:18:31.757Z,23.02
2022-08-08T19:20:43.049Z,22.94
2022-08-08T19:23:13.947Z,22.84
2022-08-08T19:26:02.208Z,22.75
2022-08-08T19:28:31.511Z,22.62
2022-08-08T19:31:03.937Z,22.46
2022-08-08T19:33:52.154Z,22.44
2022-08-08T19:36:25.293Z,22.39
2022-08-08T19:38:57.072Z,22.07
2022-08-08T19:41:33.571Z,21.90
2022-08-08T19:44:03.581Z,21.76
2022-08-08T19:46:40.542Z,21.72
2022-08-08T19:49:09.757Z,21.74
2022-08-08T19:51:39.587Z,21.64
2022-08-08T19:54:11.424Z,21.59
2022-08-08T19:56:41.378Z,21.42
2022-08-08T19:59:10.345Z,21.37
2022-08-08T20:02:02.267Z,21.43
2022-08-08T20:04:29.401Z,21.21
2022-08-08T20:06:57.792Z,20.97
2022-08-08T20:09:32.547Z,20.94
2022-08-08T20:12:09.334Z,20.77
2022-08-08T20:14:42.292Z,20.61
2022-08-08T20:17:27.790Z,20.55
2022-08-08T20:20:08.857Z,20.70
2022-08-08T20:22:40.361Z,20.35
2022-08-08T20:25:14.378Z,20.10
2022-08-08T20:27:49.443Z,19.89
2022-08-08T20:30:53.262Z,19.75
2022-08-08T20:33:08.055Z,19.63
2022-08-08T20:35:56.977Z,19.66
2022-08-08T20:38:31.927Z,19.64
2022-08-08T20:41:12.224Z,19.55
2022-08-08T20:43:49.275Z,19.57
2022-08-08T20:46:21.042Z,19.50
2022-08-08T20:48:55.619Z,19.33
2022-08-08T20:51:27.415Z,19.18
2022-08-08T20:54:03.591Z,19.04
2022-08-08T20:57:04.490Z,18.95
2022-08-08T20:59:25.342Z,18.84
2022-08-08T21:02:07.160Z,18.76
2022-08-08T21:04:36.800Z,18.67
2022-08-08T21:07:08.170Z,18.58
2022-08-08T21:09:48.537Z,18.49
2022-08-08T21:12:33.085Z,18.44
2022-08-08T21:15:09.479Z,18.37
2022-08-08T21:17:37.811Z,18.28
2022-08-08T21:20:06.200Z,18.35
2022-08-08T21:22:33.961Z,18.29
2022-08-08T21:25:02.111Z,18.25
2022-08-08T21:27:38.860Z,18.17
2022-08-08T21:30:21.707Z,18.13
2022-08-08T21:32:51.572Z,18.03
2022-08-08T21:36:17.422Z,17.91
2022-08-08T21:38:16.491Z,17.83
2022-08-08T21:40:55.017Z,17.76
2022-08-08T21:43:34.324Z,17.82
2022-08-08T21:48:05.020Z,17.83
2022-08-08T21:48:53.258Z,17.74
2022-08-08T21:54:31.739Z,17.59
2022-08-08T21:54:34.460Z,17.70
2022-08-08T21:56:59.203Z,17.66
2022-08-08T21:59:44.176Z,17.87
2022-08-08T22:02:15.983Z,17.91
2022-08-08T22:04:43.622Z,17.93
2022-08-08T22:07:11.384Z,17.63
2022-08-08T22:09:43.799Z,17.41
2022-08-08T22:12:15.077Z,17.26
2022-08-08T22:14:47.434Z,17.57
2022-08-08T22:17:18.391Z,17.16
2022-08-08T22:20:10.442Z,17.05
2022-08-08T22:22:38.043Z,17.12
2022-08-08T22:25:19.804Z,17.10
2022-08-08T22:28:03.959Z,17.09
2022-08-08T22:30:33.579Z,17.14
2022-08-08T22:33:01.892Z,16.93
2022-08-08T22:36:04.098Z,16.95
2022-08-08T22:38:17.501Z,17.11
2022-08-08T22:40:48.365Z,17.07
2022-08-08T22:43:17.315Z,16.91
2022-08-08T22:45:46.426Z,17.05
2022-08-08T22:48:14.598Z,17.00
2022-08-08T22:50:49.002Z,17.42
2022-08-08T22:54:29.354Z,17.55
2022-08-08T22:56:04.484Z,17.53
2022-08-08T22:58:33.793Z,17.32
2022-08-08T23:02:01.888Z,15.80
2022-08-08T23:03:56.575Z,15.87
2022-08-08T23:06:25.406Z,16.39
2022-08-08T23:08:58.559Z,16.47
2022-08-08T23:11:31.093Z,15.80
2022-08-08T23:14:20.841Z,15.69
2022-08-08T23:16:57.579Z,15.70
2022-08-08T23:19:30.779Z,16.02
2022-08-08T23:22:04.522Z,16.00
2022-08-08T23:24:36.778Z,16.47
2022-08-08T23:27:09.815Z,16.98
2022-08-08T23:29:38.152Z,16.17
2022-08-08T23:32:05.962Z,16.07
2022-08-08T23:34:38.283Z,15.96
2022-08-08T23:37:05.948Z,15.93
2022-08-08T23:39:42.114Z,15.87
2022-08-08T23:42:17.016Z,15.83
2022-08-08T23:44:45.192Z,15.74
2022-08-08T23:49:03.890Z,16.24
2022-08-08T23:50:03.328Z,16.67
2022-08-08T23:52:33.571Z,16.86
2022-08-08T23:55:14.682Z,16.99
2022-08-08T23:57:53.136Z,17.16
